Nearby METAR Reports

 

KIKK - Kankakee, Illinois, USA
Distance from station: S 7mi, 12km
Updated: Wed, 20-Sep-2017 9:35am CDT
Clear
Clear
 Wind from S
Wind: S 7 mph , 11 km/h
Temperature: 75°F , 24°C
Dew Point: 70°F , 21°C
Humidity: 83%
Barometer: 29.94 inHg , 1013.9 hPa
Clouds: Clear
Visibility: 10 miles , 16 km
2017/09/20 14:35 KIKK 201435Z AUTO 17006KT 10SM CLR 24/21 A2994 RMK AO2 T02390211
KIGQ - Chicago/Lansing, Illinois, USA
Distance from station: NNE 29mi, 47km
Updated: Wed, 20-Sep-2017 9:35am CDT
Clear
Clear
 Wind from SSE
Wind: SSE 8 mph , 13 km/h
Temperature: 75°F , 24°C
Dew Point: 70°F , 21°C
Humidity: 83%
Barometer: 29.93 inHg , 1013.5 hPa
Clouds: Clear
Visibility: 10 miles , 16 km
2017/09/20 14:35 KIGQ 201435Z AUTO 15007KT 10SM CLR 24/21 A2993 RMK AO2 T02400209
 
KJOT - Joliet, Illinois, USA
Distance from station: NW 30mi, 48km
Updated: Wed, 20-Sep-2017 9:35am CDT
Clear
Clear
 Wind from S
Wind: S 7 mph , 11 km/h
Temperature: 77°F , 25°C
Dew Point: 70°F , 21°C
Humidity: 79%
Barometer: 29.91 inHg , 1012.9 hPa
Clouds: Clear
Visibility: 10 miles , 16 km
2017/09/20 14:35 KJOT 201435Z AUTO 18006KT 10SM CLR 25/21 A2991 RMK AO2 T02450210
KLOT - Romeoville/Chi, Illinois, USA
Distance from station: NNW 34mi, 55km
Updated: Wed, 20-Sep-2017 9:35am CDT
Clear
Clear
 Wind from S
Wind: S 12 mph , 19 km/h
Temperature: 75°F , 24°C
Dew Point: 68°F , 20°C
Humidity: 78%
Barometer: 29.91 inHg , 1012.9 hPa
Clouds: Clear
Visibility: 10 miles , 16 km
2017/09/20 14:35 KLOT 201435Z AUTO 18010KT 10SM CLR 24/20 A2991 RMK AO2 T02390198
 
KC09 - Morris-Washburn, Illinois, USA
Distance from station: WNW 36mi, 58km
Updated: Wed, 20-Sep-2017 9:35am CDT
Clear
Clear
 Wind from SSE
Wind: SSE 8 mph , 13 km/h
Temperature: 73°F , 23°C
Dew Point: 68°F , 20°C
Humidity: 83%
Barometer: 29.90 inHg , 1012.5 hPa
Clouds: Clear
Visibility: 10 miles , 16 km
2017/09/20 14:35 KC09 201435Z AUTO 16007KT 10SM CLR 23/20 A2990 RMK AO2 T02340201
KRZL - Rensselaer, Indiana, USA
Distance from station: ESE 37mi, 59km
Updated: Wed, 20-Sep-2017 9:35am CDT
Clear
Clear
 Wind from S
Wind: S 8 mph , 13 km/h
Temperature: 73°F , 23°C
Dew Point: 68°F , 20°C
Humidity: 83%
Barometer: 29.96 inHg , 1014.6 hPa
Clouds: Clear
Visibility: 10 miles , 16 km
2017/09/20 14:35 KRZL 201435Z AUTO 17007KT 10SM CLR 23/20 A2996 RMK AO2
 
KGYY - Gary Regional, Indiana, USA
Distance from station: NE 37mi, 60km
Updated: Wed, 20-Sep-2017 9:45am CDT
Few Clouds
Few Clouds
 Wind from SSE
Wind: SSE 14 mph , 22 km/h
Temperature: 77°F , 25°C
Dew Point: 68°F , 20°C
Humidity: 74%
Barometer: 29.93 inHg , 1013.5 hPa
Clouds: Few Clouds
Visibility: 10 miles , 16 km
Cloud details: Few Clouds 25000 ft
2017/09/20 14:45 KGYY 201445Z 15012KT 10SM FEW250 25/20 A2993
KMDW - Chicago, Illinois, USA
Distance from station: N 42mi, 68km
Updated: Wed, 20-Sep-2017 8:53am CDT
Few Clouds
Few Clouds
 Wind from SSE
Wind: SSE 10 mph , 17 km/h
Temperature: 73°F , 23°C
Dew Point: 66°F , 19°C
Humidity: 78%
Barometer: 29.92 inHg , 1013.2 hPa
Clouds: Few Clouds
Visibility: 10 miles , 16 km
Cloud details: Few Clouds 7000 ft
2017/09/20 13:53 KMDW 201353Z 15009KT 10SM FEW070 23/19 A2992 RMK AO2 SLP122 T02330189
 
KPNT - Pontiac, Illinois, USA
Distance from station: WSW 46mi, 74km
Updated: Wed, 20-Sep-2017 9:35am CDT
Clear
Clear
 Wind from SSE
Wind: SSE 10 mph , 17 km/h
Temperature: 77°F , 25°C
Dew Point: 73°F , 23°C
Humidity: 89%
Barometer: 29.92 inHg , 1013.2 hPa
Clouds: Clear
Visibility: 10 miles , 16 km
2017/09/20 14:35 KPNT 201435Z AUTO 16009KT 10SM CLR 25/23 A2992 RMK AO2 T02540226
KVPZ - Valparaiso, Indiana, USA
Distance from station: ENE 47mi, 75km
Updated: Wed, 20-Sep-2017 9:03am CDT
Mist, Partly cloudy
Mist, Partly cloudy
 Wind from ESE
Wind: ESE 6 mph , 9 km/h
Temperature: 70°F , 21°C
Dew Point: 68°F , 20°C
Humidity: 94%
Barometer: 29.97 inHg , 1014.9 hPa
Summary: Mist
Clouds: Partly cloudy
Visibility: 4 miles , 6 km
Cloud details: Partly cloudy 300 ft
2017/09/20 14:03 KVPZ 201403Z AUTO 12005KT 4SM BR SCT003 21/20 A2997 RMK AO2 T02110200 TSNO